Check out our new BloomSky Weather System.

Active alerts

Houston, TX
  Details for Houston, TX Heat Advisory  +1 additional alert
Galveston, TX
  Details for Galveston, TX Heat Advisory  +1 additional alert
Fort Bend, TX
  Details for Fort Bend, TX Heat Advisory


Thunder radar  blitzortung!


Rain radar more information rain snow radar


Visit our other weather sites:

Template documentation
and downloads

And another site



Weather Underground History page Text

Daily Summary for September 26, 2017 Units:  English    Metric   Both
« Previous Day
Next Day »
Daily Weekly Monthly Yearly Custom
  High: Low: Average:
Temperature: TemperatureF °F 72.0 °F 80.1 °F
Dew Point: DewpointF °F 71.4 °F 74.1 °F
Humidity: Humidity % 59 % 83 %
Wind Speed: WindSpeedMPH mph 0.0 mph 1 mph
Wind Gust: WindSpeedGustMPH mph - -
Wind:- - SE
Pressure: PressureIn in 29.81 in -
Precipitation: 0.06 in    
Historical Graphs
 
 
Tabular Data for September 26, 2017
Time Temperature Dew Point Pressure Wind Wind Speed Wind Gust Humidity Rainfall Rate (Hourly)
TemperatureF °F DewpointF °F PressureIn in Calm     Humidity % HourlyPrecipIn in
00:02 76.3 °F 73.8 °F 29.85 in Calm   1.0 mph 92 % 0.00 in
00:07 76.1 °F 73.6 °F 29.85 in Calm   1.0 mph 92 % 0.00 in
00:12 75.9 °F 73.4 °F 29.85 in Calm   1.0 mph 92 % 0.00 in
00:17 75.9 °F 73.4 °F 29.85 in Calm   1.0 mph 92 % 0.00 in
00:22 75.7 °F 73.2 °F 29.85 in Calm   1.0 mph 92 % 0.00 in
00:27 75.6 °F 73.4 °F 29.85 in Calm   1.0 mph 93 % 0.00 in
00:37 75.4 °F 73.2 °F 29.84 in Calm   1.0 mph 93 % 0.00 in
00:42 75.0 °F 72.9 °F 29.84 in Calm   1.0 mph 93 % 0.00 in
00:52 74.7 °F 72.9 °F 29.84 in Calm     94 % 0.00 in
00:57 74.7 °F 72.9 °F 29.84 in Calm     94 % 0.00 in
01:02 74.5 °F 72.7 °F 29.84 in Calm     94 % 0.00 in
01:07 74.3 °F 72.5 °F 29.84 in Calm     94 % 0.00 in
01:12 74.1 °F 72.3 °F 29.85 in Calm     94 % 0.00 in
01:17 74.1 °F 72.7 °F 29.85 in Calm     95 % 0.00 in
01:22 73.9 °F 72.5 °F 29.85 in Calm     95 % 0.00 in
01:27 73.9 °F 72.7 °F 29.85 in Calm     96 % 0.00 in
01:32 74.1 °F 72.9 °F 29.86 in ESE 1.0 mph 1.0 mph 96 % 0.00 in
01:37 74.1 °F 72.7 °F 29.86 in Calm   1.0 mph 95 % 0.00 in
01:42 74.1 °F 72.7 °F 29.86 in Calm   1.0 mph 95 % 0.00 in
01:47 73.9 °F 72.5 °F 29.86 in Calm   1.0 mph 95 % 0.00 in
01:52 73.9 °F 72.5 °F 29.85 in Calm   1.0 mph 95 % 0.00 in
01:57 73.8 °F 72.3 °F 29.85 in Calm     95 % 0.00 in
02:02 73.8 °F 72.5 °F 29.85 in Calm     96 % 0.00 in
02:07 73.8 °F 72.5 °F 29.85 in Calm     96 % 0.00 in
02:13 73.8 °F 72.5 °F 29.85 in Calm     96 % 0.00 in
02:18 73.6 °F 72.3 °F 29.85 in Calm     96 % 0.00 in
02:23 73.6 °F 72.3 °F 29.85 in Calm     96 % 0.00 in
02:28 73.4 °F 72.1 °F 29.86 in Calm     96 % 0.00 in
02:33 73.2 °F 72.0 °F 29.86 in Calm     96 % 0.00 in
02:38 73.2 °F 72.3 °F 29.86 in Calm     97 % 0.00 in
02:43 73.2 °F 72.3 °F 29.86 in Calm     97 % 0.00 in
02:49 73.4 °F 72.5 °F 29.86 in ESE 1.0 mph   97 % 0.00 in
02:54 73.4 °F 72.5 °F 29.86 in Calm   1.0 mph 97 % 0.00 in
02:59 73.4 °F 72.5 °F 29.86 in Calm   1.0 mph 97 % 0.00 in
03:04 73.2 °F 72.0 °F 29.86 in Calm   1.0 mph 96 % 0.00 in
03:09 73.0 °F 71.8 °F 29.86 in Calm     96 % 0.00 in
03:14 72.9 °F 72.0 °F 29.86 in Calm     97 % 0.00 in
03:19 72.9 °F 72.0 °F 29.86 in Calm     97 % 0.00 in
03:24 72.9 °F 72.0 °F 29.86 in Calm   1.0 mph 97 % 0.00 in
03:29 72.9 °F 72.0 °F 29.86 in Calm   1.0 mph 97 % 0.00 in
03:34 72.7 °F 71.8 °F 29.86 in Calm   1.0 mph 97 % 0.00 in
03:39 72.7 °F 71.8 °F 29.86 in Calm   1.0 mph 97 % 0.00 in
03:44 72.5 °F 71.6 °F 29.86 in Calm   1.0 mph 97 % 0.00 in
03:54 72.3 °F 71.4 °F 29.86 in Calm     97 % 0.00 in
03:59 72.3 °F 71.8 °F 29.85 in Calm     98 % 0.00 in
04:04 72.3 °F 71.8 °F 29.85 in Calm     98 % 0.00 in
04:09 72.3 °F 71.8 °F 29.85 in Calm   1.0 mph 98 % 0.00 in
04:14 72.3 °F 71.8 °F 29.85 in Calm   1.0 mph 98 % 0.00 in
04:19 72.3 °F 71.8 °F 29.85 in Calm   1.0 mph 98 % 0.00 in
04:24 72.1 °F 71.6 °F 29.85 in Calm   1.0 mph 98 % 0.00 in
04:29 72.1 °F 71.6 °F 29.85 in Calm   1.0 mph 98 % 0.00 in
04:34 72.1 °F 71.6 °F 29.84 in Calm   1.0 mph 98 % 0.00 in
04:39 72.1 °F 71.6 °F 29.84 in Calm   1.0 mph 98 % 0.00 in
04:44 72.1 °F 71.6 °F 29.84 in Calm     98 % 0.00 in
04:49 72.1 °F 71.6 °F 29.84 in Calm     98 % 0.00 in
04:54 72.1 °F 71.6 °F 29.84 in Calm     98 % 0.00 in
04:59 72.0 °F 71.4 °F 29.84 in Calm     98 % 0.00 in
05:05 72.1 °F 71.6 °F 29.84 in Calm     98 % 0.00 in
05:10 72.1 °F 71.8 °F 29.84 in Calm   1.0 mph 99 % 0.00 in
05:15 72.1 °F 71.8 °F 29.84 in Calm   1.0 mph 99 % 0.00 in
05:20 72.1 °F 71.8 °F 29.84 in Calm   1.0 mph 99 % 0.00 in
05:25 72.1 °F 71.8 °F 29.84 in Calm   1.0 mph 99 % 0.00 in
05:30 72.1 °F 71.8 °F 29.85 in Calm   1.0 mph 99 % 0.00 in
05:35 72.1 °F 71.8 °F 29.84 in Calm   1.0 mph 99 % 0.00 in
05:40 72.1 °F 71.8 °F 29.85 in Calm     99 % 0.00 in
05:45 72.1 °F 71.8 °F 29.85 in Calm     99 % 0.00 in
05:50 72.1 °F 71.8 °F 29.85 in Calm     99 % 0.00 in
05:55 72.3 °F 72.0 °F 29.85 in Calm   2.0 mph 99 % 0.00 in
06:00 72.1 °F 71.8 °F 29.85 in Calm   2.0 mph 99 % 0.00 in
06:05 72.1 °F 71.8 °F 29.85 in Calm   2.0 mph 99 % 0.00 in
06:11 72.3 °F 72.0 °F 29.85 in Calm   1.0 mph 99 % 0.00 in
06:16 72.3 °F 72.0 °F 29.86 in Calm   1.0 mph 99 % 0.00 in
06:21 72.3 °F 72.0 °F 29.86 in Calm   1.0 mph 99 % 0.00 in
06:26 72.3 °F 72.0 °F 29.86 in Calm   1.0 mph 99 % 0.00 in
06:31 72.3 °F 72.0 °F 29.86 in Calm   1.0 mph 99 % 0.00 in
06:36 72.3 °F 72.0 °F 29.86 in Calm   1.0 mph 99 % 0.00 in
06:41 72.5 °F 72.1 °F 29.86 in Calm   1.0 mph 99 % 0.00 in
06:46 72.5 °F 72.1 °F 29.86 in Calm   1.0 mph 99 % 0.00 in
06:51 72.5 °F 72.1 °F 29.87 in Calm   1.0 mph 99 % 0.00 in
06:56 72.3 °F 72.0 °F 29.87 in Calm   1.0 mph 99 % 0.00 in
07:01 72.3 °F 72.0 °F 29.87 in Calm   1.0 mph 99 % 0.00 in
07:06 72.3 °F 72.0 °F 29.87 in Calm   1.0 mph 99 % 0.00 in
07:11 72.5 °F 72.1 °F 29.87 in Calm   1.0 mph 99 % 0.00 in
07:16 72.3 °F 72.0 °F 29.88 in Calm   1.0 mph 99 % 0.00 in
07:21 72.3 °F 72.0 °F 29.87 in Calm   1.0 mph 99 % 0.00 in
07:26 72.5 °F 72.1 °F 29.88 in Calm   1.0 mph 99 % 0.00 in
07:31 72.5 °F 72.1 °F 29.87 in Calm   1.0 mph 99 % 0.00 in
07:36 72.7 °F 72.3 °F 29.87 in Calm   1.0 mph 99 % 0.00 in
07:41 72.7 °F 72.3 °F 29.88 in Calm   1.0 mph 99 % 0.00 in
07:46 72.9 °F 72.5 °F 29.88 in Calm   1.0 mph 99 % 0.00 in
07:51 73.0 °F 72.7 °F 29.88 in Calm   1.0 mph 99 % 0.00 in
07:56 73.8 °F 73.4 °F 29.88 in Calm   1.0 mph 99 % 0.00 in
08:01 74.1 °F 73.8 °F 29.88 in Calm   1.0 mph 99 % 0.00 in
08:06 74.8 °F 74.5 °F 29.88 in Calm   1.0 mph 99 % 0.00 in
08:11 75.6 °F 75.0 °F 29.88 in Calm   2.0 mph 98 % 0.00 in
08:16 76.1 °F 75.2 °F 29.88 in East 1.0 mph 2.0 mph 97 % 0.00 in
08:18 76.3 °F 75.4 °F 29.88 in North 1.0 mph 2.0 mph 97 % 0.00 in
08:23 76.6 °F 75.0 °F 29.89 in Calm   2.0 mph 95 % 0.00 in
08:28 77.5 °F 75.9 °F 29.89 in Calm   2.0 mph 95 % 0.00 in
08:33 78.3 °F 76.1 °F 29.89 in SE 1.0 mph 2.0 mph 93 % 0.00 in
08:38 79.0 °F 76.1 °F 29.89 in ENE 1.0 mph 3.0 mph 91 % 0.00 in
08:43 79.5 °F 75.9 °F 29.89 in East 1.0 mph 3.0 mph 89 % 0.00 in
08:48 80.2 °F 76.3 °F 29.89 in Calm   3.0 mph 88 % 0.00 in
08:53 80.8 °F 76.5 °F 29.89 in SSE 1.0 mph 3.0 mph 87 % 0.00 in
08:58 81.1 °F 76.5 °F 29.89 in ESE 3.0 mph 3.0 mph 86 % 0.00 in
09:03 81.0 °F 76.5 °F 29.89 in SE 2.0 mph 6.0 mph 86 % 0.00 in
09:08 81.3 °F 76.5 °F 29.89 in SSE 1.0 mph 6.0 mph 85 % 0.00 in
09:13 81.9 °F 76.8 °F 29.89 in East 1.0 mph 6.0 mph 85 % 0.00 in
09:18 82.2 °F 76.5 °F 29.90 in WNW 2.0 mph 4.0 mph 83 % 0.00 in
09:23 82.2 °F 76.8 °F 29.90 in East 3.0 mph 5.0 mph 84 % 0.00 in
09:28 82.2 °F 76.5 °F 29.90 in NE 1.0 mph 5.0 mph 83 % 0.00 in
09:33 82.8 °F 76.6 °F 29.90 in East 3.0 mph 5.0 mph 82 % 0.00 in
09:38 82.8 °F 77.0 °F 29.90 in ENE 1.0 mph 4.0 mph 83 % 0.00 in
09:43 82.9 °F 76.8 °F 29.89 in North 3.0 mph 4.0 mph 82 % 0.00 in
09:48 82.9 °F 76.8 °F 29.89 in North 1.0 mph 6.0 mph 82 % 0.00 in
09:53 83.1 °F 77.0 °F 29.89 in NNE 4.0 mph 7.0 mph 82 % 0.00 in
09:58 83.1 °F 77.0 °F 29.90 in East 2.0 mph 7.0 mph 82 % 0.00 in
10:03 83.3 °F 77.2 °F 29.90 in ENE 4.0 mph 7.0 mph 82 % 0.00 in
10:08 84.0 °F 77.2 °F 29.90 in ESE 2.0 mph 7.0 mph 80 % 0.00 in
10:13 84.0 °F 77.2 °F 29.90 in ESE 2.0 mph 7.0 mph 80 % 0.00 in
10:18 84.0 °F 76.8 °F 29.90 in ENE 7.0 mph 7.0 mph 79 % 0.00 in
10:23 84.4 °F 77.2 °F 29.90 in SSE 4.0 mph 8.0 mph 79 % 0.00 in
10:28 84.2 °F 77.0 °F 29.90 in NNW 4.0 mph 8.0 mph 79 % 0.00 in
10:29 84.2 °F 77.4 °F 29.90 in ENE 2.0 mph 8.0 mph 80 % 0.00 in
10:34 84.4 °F 76.8 °F 29.90 in ENE 3.0 mph 8.0 mph 78 % 0.00 in
10:39 83.7 °F 76.5 °F 29.90 in ENE 1.0 mph 7.0 mph 79 % 0.00 in
10:44 83.8 °F 77.0 °F 29.90 in ENE 3.0 mph 5.0 mph 80 % 0.00 in
10:49 84.4 °F 77.2 °F 29.90 in East 2.0 mph 5.0 mph 79 % 0.00 in
10:54 84.7 °F 76.3 °F 29.90 in ESE 3.0 mph 5.0 mph 76 % 0.00 in
10:59 85.6 °F 77.5 °F 29.90 in SE 4.0 mph 8.0 mph 77 % 0.00 in
11:04 85.8 °F 76.1 °F 29.90 in ESE 3.0 mph 8.0 mph 73 % 0.00 in
11:09 86.0 °F 76.8 °F 29.90 in ENE 3.0 mph 8.0 mph 74 % 0.00 in
11:14 85.8 °F 77.0 °F 29.90 in NE 3.0 mph 8.0 mph 75 % 0.00 in
11:19 86.0 °F 76.8 °F 29.90 in SE 2.0 mph 7.0 mph 74 % 0.00 in
11:24 86.4 °F 76.3 °F 29.90 in East 2.0 mph 7.0 mph 72 % 0.00 in
11:29 86.5 °F 76.5 °F 29.90 in ESE 2.0 mph 5.0 mph 72 % 0.00 in
11:34 86.2 °F 75.7 °F 29.90 in East 2.0 mph 7.0 mph 71 % 0.00 in
11:39 86.2 °F 75.7 °F 29.90 in SSE 1.0 mph 7.0 mph 71 % 0.00 in
11:44 86.4 °F 75.4 °F 29.90 in SE 3.0 mph 7.0 mph 70 % 0.00 in
11:49 86.7 °F 76.1 °F 29.89 in SSW 1.0 mph 6.0 mph 71 % 0.00 in
11:54 87.1 °F 76.1 °F 29.89 in SE 2.0 mph 6.0 mph 70 % 0.00 in
12:00 87.1 °F 75.7 °F 29.89 in ESE 6.0 mph 6.0 mph 69 % 0.00 in
12:05 87.1 °F 75.7 °F 29.89 in ENE 3.0 mph 10.0 mph 69 % 0.00 in
12:10 86.7 °F 75.7 °F 29.89 in ESE 3.0 mph 10.0 mph 70 % 0.00 in
12:15 86.7 °F 76.1 °F 29.89 in ESE 5.0 mph 10.0 mph 71 % 0.00 in
12:20 86.9 °F 75.6 °F 29.89 in ENE 3.0 mph 6.0 mph 69 % 0.00 in
12:25 87.3 °F 75.9 °F 29.89 in ESE 2.0 mph 6.0 mph 69 % 0.00 in
12:30 87.1 °F 75.2 °F 29.89 in East 2.0 mph 6.0 mph 68 % 0.00 in
12:35 87.1 °F 75.2 °F 29.89 in ENE 3.0 mph 7.0 mph 68 % 0.00 in
12:40 87.4 °F 75.2 °F 29.88 in Calm   7.0 mph 67 % 0.00 in
12:45 87.8 °F 75.9 °F 29.88 in ESE 2.0 mph 8.0 mph 68 % 0.00 in
12:50 88.0 °F 76.1 °F 29.88 in NE 2.0 mph 8.0 mph 68 % 0.00 in
12:55 88.2 °F 74.8 °F 29.88 in NNW 2.0 mph 6.0 mph 65 % 0.00 in
13:00 89.1 °F 76.3 °F 29.88 in SE 4.0 mph 6.0 mph 66 % 0.00 in
13:05 89.4 °F 76.1 °F 29.88 in East 3.0 mph 6.0 mph 65 % 0.00 in
13:10 89.8 °F 75.9 °F 29.88 in East 2.0 mph 6.0 mph 64 % 0.00 in
13:15 89.4 °F 75.6 °F 29.87 in Calm   7.0 mph 64 % 0.00 in
13:20 89.4 °F 75.2 °F 29.87 in ESE 3.0 mph 7.0 mph 63 % 0.00 in
13:25 89.4 °F 76.1 °F 29.87 in SW 1.0 mph 7.0 mph 65 % 0.00 in
13:30 89.2 °F 75.4 °F 29.86 in East 3.0 mph 7.0 mph 64 % 0.00 in
13:36 89.2 °F 75.4 °F 29.86 in NW 1.0 mph 7.0 mph 64 % 0.00 in
13:41 89.4 °F 75.6 °F 29.86 in Calm   7.0 mph 64 % 0.00 in
13:46 89.6 °F 74.3 °F 29.86 in East 4.0 mph 5.0 mph 61 % 0.00 in
13:51 89.4 °F 75.6 °F 29.86 in ESE 5.0 mph 8.0 mph 64 % 0.00 in
13:56 89.4 °F 75.6 °F 29.86 in SE 3.0 mph 8.0 mph 64 % 0.00 in
14:01 89.1 °F 75.2 °F 29.85 in East 1.0 mph 8.0 mph 64 % 0.00 in
14:07 89.1 °F 75.2 °F 29.85 in SE 1.0 mph 7.0 mph 64 % 0.00 in
14:12 89.4 °F 75.6 °F 29.85 in ENE 3.0 mph 5.0 mph 64 % 0.00 in
14:17 89.2 °F 75.0 °F 29.85 in ESE 3.0 mph 7.0 mph 63 % 0.00 in
14:22 89.2 °F 75.0 °F 29.85 in SSE 4.0 mph 7.0 mph 63 % 0.00 in
14:27 88.9 °F 75.2 °F 29.84 in SE 4.0 mph 7.0 mph 64 % 0.00 in
14:32 89.1 °F 75.2 °F 29.84 in Calm   7.0 mph 64 % 0.00 in
14:37 89.2 °F 75.4 °F 29.84 in Calm   7.0 mph 64 % 0.00 in
14:42 89.4 °F 75.2 °F 29.83 in NNW 1.0 mph 5.0 mph 63 % 0.00 in
14:47 89.4 °F 75.2 °F 29.84 in NNE 2.0 mph 8.0 mph 63 % 0.00 in
14:52 89.8 °F 75.0 °F 29.83 in ENE 2.0 mph 8.0 mph 62 % 0.00 in
14:57 90.3 °F 75.6 °F 29.83 in SSE 2.0 mph 8.0 mph 62 % 0.00 in
15:02 90.0 °F 74.1 °F 29.83 in WNW 4.0 mph 7.0 mph 60 % 0.00 in
15:07 89.4 °F 74.1 °F 29.83 in North 3.0 mph 6.0 mph 61 % 0.00 in
15:12 89.1 °F 73.9 °F 29.83 in Calm   6.0 mph 61 % 0.00 in
15:17 88.7 °F 73.6 °F 29.83 in Calm   6.0 mph 61 % 0.00 in
15:22 88.9 °F 74.1 °F 29.83 in NE 1.0 mph 6.0 mph 62 % 0.00 in
15:23 88.9 °F 74.1 °F 29.83 in ESE 2.0 mph 6.0 mph 62 % 0.00 in
15:28 88.9 °F 73.8 °F 29.83 in Calm   6.0 mph 61 % 0.00 in
15:33 89.1 °F 73.9 °F 29.82 in NE 3.0 mph 6.0 mph 61 % 0.00 in
15:38 89.1 °F 74.3 °F 29.82 in SE 1.0 mph 6.0 mph 62 % 0.00 in
15:43 89.1 °F 74.8 °F 29.82 in NNW 3.0 mph 5.0 mph 63 % 0.00 in
15:48 89.2 °F 75.0 °F 29.82 in East 3.0 mph 5.0 mph 63 % 0.00 in
15:53 90.1 °F 75.9 °F 29.82 in ENE 1.0 mph 5.0 mph 63 % 0.00 in
15:58 90.9 °F 75.6 °F 29.81 in East 4.0 mph 6.0 mph 61 % 0.00 in
16:03 90.3 °F 74.5 °F 29.81 in NE 3.0 mph 11.0 mph 60 % 0.00 in
16:08 90.0 °F 74.1 °F 29.81 in ESE 2.0 mph 11.0 mph 60 % 0.00 in
16:13 89.8 °F 74.1 °F 29.81 in NW 1.0 mph 11.0 mph 60 % 0.00 in
16:18 90.0 °F 74.1 °F 29.81 in WNW 2.0 mph 8.0 mph 60 % 0.00 in
16:23 90.1 °F 74.3 °F 29.81 in East 5.0 mph 6.0 mph 60 % 0.00 in
16:28 89.8 °F 73.6 °F 29.81 in Calm   8.0 mph 59 % 0.00 in
16:33 90.0 °F 74.1 °F 29.81 in Calm   8.0 mph 60 % 0.00 in
16:38 90.0 °F 73.8 °F 29.81 in NE 2.0 mph 8.0 mph 59 % 0.00 in
16:43 89.8 °F 74.1 °F 29.81 in ENE 1.0 mph 7.0 mph 60 % 0.00 in
16:48 89.4 °F 73.2 °F 29.81 in NNW 1.0 mph 6.0 mph 59 % 0.00 in
16:53 89.2 °F 73.0 °F 29.81 in SE 1.0 mph 6.0 mph 59 % 0.00 in
16:58 89.1 °F 73.9 °F 29.81 in NW 2.0 mph 7.0 mph 61 % 0.00 in
17:03 89.1 °F 72.9 °F 29.81 in East 4.0 mph 7.0 mph 59 % 0.00 in
17:08 88.9 °F 73.2 °F 29.81 in East 4.0 mph 7.0 mph 60 % 0.00 in
17:13 88.7 °F 73.0 °F 29.81 in South 2.0 mph 6.0 mph 60 % 0.00 in
17:18 88.9 °F 74.1 °F 29.82 in SSE 2.0 mph 7.0 mph 62 % 0.00 in
17:23 89.1 °F 73.9 °F 29.82 in NNE 1.0 mph 7.0 mph 61 % 0.00 in
17:28 89.1 °F 73.9 °F 29.82 in Calm   7.0 mph 61 % 0.00 in
17:34 89.1 °F 73.4 °F 29.82 in East 1.0 mph 5.0 mph 60 % 0.00 in
17:39 88.9 °F 73.2 °F 29.82 in SE 3.0 mph 5.0 mph 60 % 0.00 in
17:44 88.5 °F 73.4 °F 29.82 in East 1.0 mph 4.0 mph 61 % 0.00 in
17:49 88.2 °F 73.0 °F 29.82 in SSE 2.0 mph 4.0 mph 61 % 0.00 in
17:54 88.0 °F 73.4 °F 29.83 in ENE 1.0 mph 6.0 mph 62 % 0.00 in
17:59 87.8 °F 73.2 °F 29.83 in Calm   6.0 mph 62 % 0.00 in
18:04 87.6 °F 73.0 °F 29.83 in NNW 2.0 mph 6.0 mph 62 % 0.00 in
18:09 87.6 °F 73.0 °F 29.83 in East 2.0 mph 3.0 mph 62 % 0.00 in
18:14 87.6 °F 73.4 °F 29.83 in Calm   3.0 mph 63 % 0.00 in
18:19 87.4 °F 73.2 °F 29.83 in Calm   3.0 mph 63 % 0.00 in
18:24 87.3 °F 73.0 °F 29.83 in Calm   3.0 mph 63 % 0.00 in
18:29 87.1 °F 73.4 °F 29.83 in Calm   3.0 mph 64 % 0.00 in
18:34 86.9 °F 73.8 °F 29.83 in ESE 2.0 mph 3.0 mph 65 % 0.00 in
18:36 86.7 °F 73.6 °F 29.83 in ENE 3.0 mph 3.0 mph 65 % 0.00 in
18:41 86.5 °F 73.8 °F 29.83 in ESE 2.0 mph 4.0 mph 66 % 0.00 in
18:46 86.4 °F 74.1 °F 29.83 in Calm   4.0 mph 67 % 0.00 in
18:51 86.2 °F 74.3 °F 29.83 in East 1.0 mph 4.0 mph 68 % 0.00 in
18:56 86.0 °F 74.1 °F 29.83 in Calm   4.0 mph 68 % 0.00 in
19:01 85.8 °F 74.5 °F 29.83 in SE 1.0 mph 4.0 mph 69 % 0.00 in
19:06 85.6 °F 74.7 °F 29.83 in East 3.0 mph 5.0 mph 70 % 0.00 in
19:11 85.5 °F 75.0 °F 29.84 in SE 1.0 mph 7.0 mph 71 % 0.00 in
19:16 85.3 °F 75.2 °F 29.84 in ESE 2.0 mph 9.0 mph 72 % 0.00 in
19:21 85.1 °F 75.0 °F 29.84 in SE 2.0 mph 9.0 mph 72 % 0.00 in
19:26 84.6 °F 75.0 °F 29.85 in SE 4.0 mph 11.0 mph 73 % 0.00 in
19:31 82.0 °F 74.1 °F 29.85 in ESE 3.0 mph 15.0 mph 77 % 0.04 in
19:36 79.5 °F 73.6 °F 29.86 in East 7.0 mph 15.0 mph 82 % 0.05 in
19:41 78.1 °F 73.2 °F 29.86 in ENE 1.0 mph 15.0 mph 85 % 0.05 in
19:46 77.2 °F 73.0 °F 29.86 in Calm   10.0 mph 87 % 0.05 in
19:51 76.6 °F 73.2 °F 29.86 in Calm   10.0 mph 89 % 0.06 in
19:56 76.5 °F 73.2 °F 29.86 in Calm   5.0 mph 90 % 0.06 in
20:01 76.6 °F 73.8 °F 29.86 in Calm   4.0 mph 91 % 0.06 in
20:06 76.6 °F 73.8 °F 29.86 in Calm   4.0 mph 91 % 0.06 in
20:11 76.5 °F 73.9 °F 29.86 in Calm   1.0 mph 92 % 0.06 in
20:16 76.5 °F 73.9 °F 29.86 in Calm     92 % 0.06 in
20:21 76.5 °F 74.3 °F 29.86 in Calm     93 % 0.06 in
20:26 77.0 °F 75.2 °F 29.86 in Calm     94 % 0.06 in
20:31 77.4 °F 75.7 °F 29.86 in Calm   1.0 mph 95 % 0.02 in
20:36 77.4 °F 75.7 °F 29.86 in Calm   1.0 mph 95 % 0.01 in
20:41 77.2 °F 75.6 °F 29.87 in Calm   1.0 mph 95 % 0.01 in
20:46 77.4 °F 75.7 °F 29.87 in Calm   1.0 mph 95 % 0.01 in
20:51 77.5 °F 76.3 °F 29.87 in Calm   1.0 mph 96 % 0.00 in
20:56 77.7 °F 76.5 °F 29.87 in Calm   1.0 mph 96 % 0.00 in
21:01 77.7 °F 76.5 °F 29.87 in Calm   1.0 mph 96 % 0.00 in
21:07 77.7 °F 76.5 °F 29.87 in Calm   1.0 mph 96 % 0.00 in
21:12 77.7 °F 76.5 °F 29.88 in Calm   1.0 mph 96 % 0.00 in
21:17 77.7 °F 76.5 °F 29.88 in Calm   1.0 mph 96 % 0.00 in
21:22 77.7 °F 76.5 °F 29.88 in Calm   1.0 mph 96 % 0.00 in
21:27 77.7 °F 76.5 °F 29.88 in Calm   1.0 mph 96 % 0.00 in
21:32 77.5 °F 76.6 °F 29.88 in Calm   1.0 mph 97 % 0.00 in
21:37 77.5 °F 76.6 °F 29.89 in Calm     97 % 0.00 in
21:42 77.5 °F 76.6 °F 29.89 in Calm     97 % 0.00 in
21:47 77.5 °F 76.6 °F 29.89 in Calm     97 % 0.00 in
21:52 77.5 °F 76.6 °F 29.89 in Calm     97 % 0.00 in
21:57 77.4 °F 76.5 °F 29.89 in Calm     97 % 0.00 in
22:02 77.4 °F 76.5 °F 29.89 in Calm     97 % 0.00 in
22:07 77.4 °F 76.5 °F 29.89 in Calm     97 % 0.00 in
22:12 77.4 °F 76.5 °F 29.89 in Calm   1.0 mph 97 % 0.00 in
22:17 77.4 °F 76.5 °F 29.89 in Calm   1.0 mph 97 % 0.00 in
22:22 77.2 °F 76.3 °F 29.89 in Calm   1.0 mph 97 % 0.00 in
22:24 77.2 °F 76.3 °F 29.89 in Calm   1.0 mph 97 % 0.00 in
22:29 77.2 °F 76.3 °F 29.89 in Calm   1.0 mph 97 % 0.00 in
22:35 77.2 °F 76.3 °F 29.89 in Calm   1.0 mph 97 % 0.00 in
22:40 77.2 °F 76.3 °F 29.89 in Calm   1.0 mph 97 % 0.00 in
22:45 77.0 °F 76.1 °F 29.89 in Calm   1.0 mph 97 % 0.00 in
22:50 77.0 °F 76.1 °F 29.89 in Calm     97 % 0.00 in
22:55 76.8 °F 75.9 °F 29.89 in Calm     97 % 0.00 in
23:00 76.8 °F 75.9 °F 29.89 in Calm     97 % 0.00 in
23:05 76.6 °F 75.7 °F 29.89 in Calm     97 % 0.00 in
23:10 76.6 °F 76.1 °F 29.89 in Calm     98 % 0.00 in
23:15 76.6 °F 76.1 °F 29.89 in Calm     98 % 0.00 in
23:20 76.6 °F 76.1 °F 29.89 in Calm     98 % 0.00 in
23:25 76.5 °F 75.9 °F 29.89 in Calm     98 % 0.00 in
23:30 76.5 °F 75.9 °F 29.89 in Calm     98 % 0.00 in
23:35 76.5 °F 75.9 °F 29.89 in Calm     98 % 0.00 in
23:40 76.3 °F 75.7 °F 29.89 in Calm     98 % 0.00 in
23:45 76.3 °F 75.7 °F 29.89 in Calm     98 % 0.00 in
23:50 76.1 °F 75.6 °F 29.89 in Calm     98 % 0.00 in
23:55 76.1 °F 75.6 °F 29.89 in Calm     98 % 0.00 in
Spring, Texas: Villages of Bridgestone
Compliments of Weather Underground - 2.75 mb

Script developed by  Jim McMurry - jmcmurry@mwt.net Adapted for the template by  Wim van der Kuil - Leuven-Template.eu

You find our weather info also at:

UK Metoffice

WeatherCloud

Weather Underground

Mid-South Weather Network

AWEKAS

Citizen Weather Observer Program (CWOP)

HAMweather, WeatherForYou, PWS Weather

Equipment we use:

Weather-station
Davis Vantage Vue

Weather-program
Meteohub

Weather-server
Debian 7.9 x86 (Guest)

Provider
DreamHost

Davis Vantage Vue

Meteohub

Debian 7.9 x86 (Guest)

DreamHost